createdAt,value
2023-02-06T00:01:25.778Z,17.73
2023-02-06T00:03:52.859Z,8.07
2023-02-06T00:06:19.975Z,8.50
2023-02-06T00:08:47.124Z,5.27
2023-02-06T00:11:19.077Z,5.90
2023-02-06T00:13:46.612Z,13.00
2023-02-06T00:16:24.512Z,5.53
2023-02-06T00:18:51.825Z,9.70
2023-02-06T00:21:21.872Z,11.27
2023-02-06T00:23:49.378Z,9.63
2023-02-06T00:26:16.436Z,11.17
2023-02-06T00:28:43.887Z,9.57
2023-02-06T00:31:11.090Z,9.37
2023-02-06T00:33:39.349Z,9.03
2023-02-06T00:36:06.623Z,11.53
2023-02-06T00:38:33.714Z,7.87
2023-02-06T00:41:00.790Z,6.43
2023-02-06T00:43:27.898Z,12.10
2023-02-06T00:45:57.519Z,10.23
2023-02-06T00:48:25.664Z,12.07
2023-02-06T00:50:53.608Z,9.13
2023-02-06T00:53:20.737Z,14.37
2023-02-06T00:55:47.870Z,8.73
2023-02-06T00:58:15.167Z,6.27
2023-02-06T01:00:43.747Z,7.80
2023-02-06T01:03:10.823Z,8.27
2023-02-06T01:05:38.285Z,9.07
2023-02-06T01:08:05.086Z,10.27
2023-02-06T01:10:32.427Z,10.90
2023-02-06T01:13:00.267Z,6.77
2023-02-06T01:15:27.426Z,8.40
2023-02-06T01:17:54.480Z,7.53
2023-02-06T01:20:22.882Z,8.37
2023-02-06T01:22:49.655Z,7.23
2023-02-06T01:25:16.699Z,9.07
2023-02-06T01:27:43.803Z,13.83
2023-02-06T01:30:11.286Z,7.93
2023-02-06T01:32:42.095Z,9.17
2023-02-06T01:35:10.727Z,6.63
2023-02-06T01:37:38.954Z,7.07
2023-02-06T01:40:08.931Z,9.23
2023-02-06T01:42:36.592Z,9.30
2023-02-06T01:45:39.741Z,11.33
2023-02-06T01:48:10.908Z,7.43
2023-02-06T01:50:41.450Z,8.70
2023-02-06T01:53:10.388Z,8.27
2023-02-06T01:55:39.857Z,6.47
2023-02-06T01:58:09.054Z,13.43
2023-02-06T02:00:36.177Z,10.73
2023-02-06T02:03:04.570Z,8.57
2023-02-06T02:05:33.315Z,8.20
2023-02-06T02:08:07.393Z,11.83
2023-02-06T02:10:35.222Z,15.07
2023-02-06T02:13:02.404Z,13.37
2023-02-06T02:15:53.713Z,14.67
2023-02-06T02:18:26.341Z,9.83
2023-02-06T02:21:13.203Z,15.07
2023-02-06T02:24:13.420Z,11.77
2023-02-06T02:27:05.745Z,14.17
2023-02-06T02:29:41.270Z,12.23
2023-02-06T02:32:39.580Z,19.53
2023-02-06T02:35:13.595Z,12.07
2023-02-06T02:37:51.551Z,9.57
2023-02-06T02:40:45.754Z,14.37
2023-02-06T02:43:43.899Z,11.23
2023-02-06T02:46:11.147Z,11.93
2023-02-06T02:48:41.993Z,16.40
2023-02-06T02:51:10.608Z,20.60
2023-02-06T02:53:38.037Z,11.93
2023-02-06T02:56:19.859Z,16.17
2023-02-06T02:58:53.418Z,13.43
2023-02-06T03:01:31.974Z,13.83
2023-02-06T03:04:08.577Z,12.00
2023-02-06T03:06:56.683Z,11.67
2023-02-06T03:09:47.628Z,14.60
2023-02-06T03:12:32.832Z,16.00
2023-02-06T03:15:17.743Z,14.70
2023-02-06T03:18:09.465Z,22.90
2023-02-06T03:20:42.013Z,16.50
2023-02-06T03:23:10.912Z,18.60
2023-02-06T03:25:41.501Z,18.00
2023-02-06T03:28:16.020Z,15.53
2023-02-06T03:30:45.239Z,20.10
2023-02-06T03:33:15.567Z,22.43
2023-02-06T03:35:42.785Z,23.23
2023-02-06T03:38:10.144Z,21.37
2023-02-06T03:40:39.346Z,31.20
2023-02-06T03:43:06.608Z,25.97
2023-02-06T03:45:40.013Z,22.47
2023-02-06T03:48:11.537Z,21.20
2023-02-06T03:50:41.680Z,19.70
2023-02-06T03:53:10.199Z,26.37
2023-02-06T03:55:37.900Z,21.23
2023-02-06T03:58:08.812Z,17.07
2023-02-06T04:00:38.017Z,20.40
2023-02-06T04:03:05.450Z,30.63
2023-02-06T04:05:32.107Z,22.07
2023-02-06T04:07:59.177Z,18.70
2023-02-06T04:10:26.563Z,18.60
2023-02-06T04:12:53.743Z,19.37
2023-02-06T04:15:20.746Z,27.10
2023-02-06T04:17:59.361Z,16.43
2023-02-06T04:20:27.569Z,20.03
2023-02-06T04:22:54.889Z,18.90
2023-02-06T04:25:21.767Z,19.17
2023-02-06T04:27:48.857Z,27.47
2023-02-06T04:30:17.297Z,29.27
2023-02-06T04:32:44.157Z,23.40
2023-02-06T04:35:11.212Z,18.60
2023-02-06T04:37:38.289Z,28.17
2023-02-06T04:40:05.546Z,20.70
2023-02-06T04:42:32.657Z,24.80
2023-02-06T04:44:59.729Z,18.10
2023-02-06T04:47:26.377Z,26.07
2023-02-06T04:49:53.490Z,21.03
2023-02-06T04:52:20.588Z,25.57
2023-02-06T04:54:47.604Z,15.70
2023-02-06T04:57:14.719Z,16.40
2023-02-06T04:59:41.836Z,21.90
2023-02-06T05:02:08.837Z,19.27
2023-02-06T05:04:36.007Z,25.53
2023-02-06T05:07:05.415Z,18.23
2023-02-06T05:09:32.600Z,20.73
2023-02-06T05:11:59.656Z,21.23
2023-02-06T05:14:26.398Z,26.37
2023-02-06T05:16:53.456Z,23.60
2023-02-06T05:19:20.482Z,16.30
2023-02-06T05:21:47.501Z,27.70
2023-02-06T05:24:14.554Z,21.80
2023-02-06T05:26:41.693Z,22.57
2023-02-06T05:29:08.776Z,21.07
2023-02-06T05:31:36.139Z,28.83
2023-02-06T05:34:03.238Z,25.67
2023-02-06T05:36:30.386Z,25.20
2023-02-06T05:38:57.510Z,24.73
2023-02-06T05:41:24.606Z,22.53
2023-02-06T05:43:51.675Z,27.73
2023-02-06T05:46:19.344Z,24.10
2023-02-06T05:48:46.400Z,25.87
2023-02-06T05:51:13.489Z,28.17
2023-02-06T05:53:40.617Z,19.97
2023-02-06T05:56:07.712Z,27.43
2023-02-06T05:58:34.834Z,25.87
2023-02-06T06:01:01.946Z,18.87
2023-02-06T06:03:29.012Z,23.73
2023-02-06T06:05:56.179Z,29.10
2023-02-06T06:08:23.320Z,29.73
2023-02-06T06:10:51.766Z,26.27
2023-02-06T06:13:18.991Z,47.43
2023-02-06T06:15:46.070Z,35.20
2023-02-06T06:18:13.175Z,38.13
2023-02-06T06:20:40.288Z,29.67
2023-02-06T06:23:07.332Z,36.30
2023-02-06T06:25:35.630Z,29.43
2023-02-06T06:28:02.968Z,30.23
2023-02-06T06:30:30.077Z,26.67
2023-02-06T06:32:57.253Z,28.80
2023-02-06T06:35:25.982Z,30.27
2023-02-06T06:37:53.035Z,30.30
2023-02-06T06:40:20.080Z,35.77
2023-02-06T06:42:47.219Z,26.63
2023-02-06T06:45:14.364Z,31.23
2023-02-06T06:47:41.516Z,33.27
2023-02-06T06:50:08.779Z,33.50
2023-02-06T06:52:35.842Z,34.50
2023-02-06T06:55:02.934Z,42.60
2023-02-06T06:57:32.744Z,28.57
2023-02-06T06:59:59.820Z,28.70
2023-02-06T07:02:28.319Z,38.27
2023-02-06T07:04:55.661Z,27.83
2023-02-06T07:07:22.490Z,29.90
2023-02-06T07:09:49.537Z,38.53
2023-02-06T07:12:16.649Z,28.00
2023-02-06T07:14:43.690Z,20.33
2023-02-06T07:17:10.768Z,26.93
2023-02-06T07:19:37.899Z,23.97
2023-02-06T07:22:04.990Z,18.00
2023-02-06T07:24:32.018Z,26.40
2023-02-06T07:26:58.786Z,30.10
2023-02-06T07:29:26.020Z,20.73
2023-02-06T07:31:53.196Z,25.67
2023-02-06T07:34:20.242Z,44.17
2023-02-06T07:36:47.292Z,18.70
2023-02-06T07:39:14.347Z,30.73
2023-02-06T07:41:41.554Z,26.77
2023-02-06T07:44:08.893Z,30.60
2023-02-06T07:46:36.003Z,28.87
2023-02-06T07:49:03.109Z,28.57
2023-02-06T07:51:30.151Z,30.97
2023-02-06T07:53:57.185Z,37.10
2023-02-06T07:56:25.132Z,39.43
2023-02-06T07:58:53.626Z,32.37
2023-02-06T08:01:22.213Z,46.23
2023-02-06T08:03:50.750Z,42.20
2023-02-06T08:06:17.849Z,38.33
2023-02-06T08:08:45.135Z,40.20
2023-02-06T08:11:16.048Z,41.03
2023-02-06T08:13:43.810Z,35.20
2023-02-06T08:16:22.039Z,32.27
2023-02-06T08:18:49.290Z,33.77
2023-02-06T08:21:22.199Z,32.97
2023-02-06T08:23:54.809Z,29.60
2023-02-06T08:26:22.042Z,30.37
2023-02-06T08:28:50.325Z,24.77
2023-02-06T08:31:20.535Z,37.40
2023-02-06T08:33:47.731Z,32.43
2023-02-06T08:36:15.475Z,33.37
2023-02-06T08:38:42.559Z,34.13
2023-02-06T08:41:22.095Z,33.67
2023-02-06T08:43:50.057Z,34.03
2023-02-06T08:46:18.862Z,33.90
2023-02-06T08:48:46.428Z,34.50
2023-02-06T08:51:13.854Z,33.57
2023-02-06T08:53:40.740Z,34.83
2023-02-06T08:56:10.158Z,34.67
2023-02-06T08:58:37.609Z,32.30
2023-02-06T09:01:14.265Z,35.00
2023-02-06T09:03:44.449Z,28.07
2023-02-06T09:06:11.786Z,32.47
2023-02-06T09:08:39.133Z,39.63
2023-02-06T09:11:11.678Z,32.10
2023-02-06T09:13:39.118Z,36.50
2023-02-06T09:16:07.160Z,36.77
2023-02-06T09:18:34.509Z,27.60
2023-02-06T09:21:11.432Z,32.63
2023-02-06T09:23:43.877Z,25.17
2023-02-06T09:26:16.336Z,32.17
2023-02-06T09:28:43.587Z,21.97
2023-02-06T09:31:11.043Z,22.67
2023-02-06T09:33:38.823Z,27.50
2023-02-06T09:36:09.411Z,25.97
2023-02-06T09:38:38.074Z,27.47
2023-02-06T09:41:27.140Z,37.27
2023-02-06T09:44:08.078Z,27.50
2023-02-06T09:46:48.628Z,29.33
2023-02-06T09:49:24.825Z,34.53
2023-02-06T09:52:05.902Z,25.77
2023-02-06T09:54:55.429Z,28.23
2023-02-06T09:57:53.394Z,30.67
2023-02-06T10:00:20.411Z,30.33
2023-02-06T10:03:18.070Z,24.90
2023-02-06T10:05:45.132Z,28.77
2023-02-06T10:08:35.991Z,26.63
2023-02-06T10:11:10.193Z,26.07
2023-02-06T10:13:52.022Z,20.77
2023-02-06T10:16:53.120Z,21.60
2023-02-06T10:19:32.697Z,22.03
2023-02-06T10:22:04.753Z,22.00
2023-02-06T10:24:56.124Z,28.80
2023-02-06T10:27:23.193Z,23.40
2023-02-06T10:29:50.255Z,25.93
2023-02-06T10:32:39.422Z,28.40
2023-02-06T10:35:22.170Z,23.87
2023-02-06T10:38:15.873Z,24.20
2023-02-06T10:41:07.944Z,32.53
2023-02-06T10:43:59.838Z,31.73
2023-02-06T10:46:48.324Z,27.43
2023-02-06T10:49:38.678Z,23.97
2023-02-06T10:52:27.584Z,43.90
2023-02-06T10:55:00.224Z,26.47
2023-02-06T10:57:30.871Z,24.93
2023-02-06T11:00:03.507Z,24.70
2023-02-06T11:02:43.338Z,30.50
2023-02-06T11:05:16.000Z,30.53
2023-02-06T11:07:46.990Z,25.10
2023-02-06T11:10:19.084Z,25.17
2023-02-06T11:13:13.805Z,28.03
2023-02-06T11:15:44.436Z,29.60
2023-02-06T11:18:17.353Z,26.90
2023-02-06T11:20:46.054Z,32.60
2023-02-06T11:23:24.976Z,32.33
2023-02-06T11:26:14.023Z,34.97
2023-02-06T11:28:55.790Z,39.60
2023-02-06T11:31:44.825Z,34.30
2023-02-06T11:34:58.360Z,40.47
2023-02-06T11:37:35.696Z,34.30
2023-02-06T11:40:17.742Z,33.20
2023-02-06T11:42:46.482Z,27.77
2023-02-06T11:45:25.745Z,28.47
2023-02-06T11:47:53.069Z,22.70
2023-02-06T11:50:34.461Z,40.57
2023-02-06T11:53:30.631Z,28.20
2023-02-06T11:56:18.585Z,21.00
2023-02-06T11:58:46.142Z,102.03
2023-02-06T12:01:20.945Z,19.00
2023-02-06T12:03:50.536Z,23.57
2023-02-06T12:06:30.137Z,25.23
2023-02-06T12:09:01.846Z,25.37
2023-02-06T12:11:35.484Z,19.53
2023-02-06T12:14:09.263Z,21.20
2023-02-06T12:16:39.541Z,27.37
2023-02-06T12:19:13.771Z,35.97
2023-02-06T12:21:58.266Z,26.60
2023-02-06T12:24:44.300Z,24.93
2023-02-06T12:27:39.075Z,23.50
2023-02-06T12:30:26.048Z,29.17
2023-02-06T12:33:03.286Z,21.97
2023-02-06T12:35:43.821Z,24.50
2023-02-06T12:38:26.197Z,23.33
2023-02-06T12:41:06.821Z,23.57
2023-02-06T12:43:35.668Z,22.83
2023-02-06T12:46:16.213Z,20.33
2023-02-06T12:49:19.881Z,19.03
2023-02-06T12:51:59.257Z,20.67
2023-02-06T12:54:39.117Z,20.87
2023-02-06T12:57:20.071Z,18.20
2023-02-06T13:00:14.021Z,22.70
2023-02-06T13:03:23.061Z,19.30
2023-02-06T13:06:12.520Z,16.93
2023-02-06T13:08:47.303Z,25.13
2023-02-06T13:11:35.038Z,17.60
2023-02-06T13:14:29.257Z,17.43
2023-02-06T13:17:11.778Z,22.83
2023-02-06T13:19:41.474Z,19.13
2023-02-06T13:22:08.514Z,31.33
2023-02-06T13:24:36.450Z,24.03
2023-02-06T13:27:09.547Z,20.53
2023-02-06T13:29:38.660Z,21.93
2023-02-06T13:32:21.605Z,14.87
2023-02-06T13:35:10.225Z,16.67
2023-02-06T13:37:38.437Z,20.97
2023-02-06T13:40:23.345Z,21.57
2023-02-06T13:42:50.400Z,17.07
2023-02-06T13:45:35.136Z,20.40
2023-02-06T13:48:05.231Z,26.87
2023-02-06T13:51:04.952Z,22.80
2023-02-06T13:53:55.238Z,20.33
2023-02-06T13:56:22.351Z,21.93
2023-02-06T13:58:55.711Z,23.53
2023-02-06T14:01:28.006Z,19.50
2023-02-06T14:03:56.219Z,21.07
2023-02-06T14:06:35.946Z,24.80
2023-02-06T14:10:07.092Z,22.77
2023-02-06T14:12:48.586Z,16.10
2023-02-06T14:15:36.999Z,15.60
2023-02-06T14:18:36.136Z,20.90
2023-02-06T14:21:30.682Z,22.97
2023-02-06T14:24:36.246Z,17.20
2023-02-06T14:27:17.049Z,26.30
2023-02-06T14:29:57.394Z,22.73
2023-02-06T14:32:41.413Z,17.67
2023-02-06T14:35:26.080Z,23.23
2023-02-06T14:38:34.648Z,18.70
2023-02-06T14:41:03.009Z,13.93
2023-02-06T14:43:35.168Z,10.57
2023-02-06T14:46:08.475Z,8.13
2023-02-06T14:48:51.873Z,11.17
2023-02-06T14:51:29.373Z,9.20
2023-02-06T14:54:01.412Z,13.37
2023-02-06T14:56:29.866Z,11.30
2023-02-06T14:58:57.180Z,8.73
2023-02-06T15:01:27.541Z,11.57
2023-02-06T15:04:15.901Z,13.20
2023-02-06T15:06:50.776Z,7.17
2023-02-06T15:09:29.717Z,10.70
2023-02-06T15:11:59.461Z,10.47
2023-02-06T15:14:29.236Z,12.20
2023-02-06T15:17:00.761Z,15.33
2023-02-06T15:19:29.982Z,6.77
2023-02-06T15:22:01.281Z,7.83
2023-02-06T15:25:10.089Z,8.40
2023-02-06T15:27:38.588Z,11.83
2023-02-06T15:30:25.710Z,4.10
2023-02-06T15:32:54.298Z,15.40
2023-02-06T15:35:28.731Z,9.20
2023-02-06T15:37:56.728Z,8.60
2023-02-06T15:40:31.604Z,5.13
2023-02-06T15:42:59.123Z,6.93
2023-02-06T15:45:31.550Z,7.47
2023-02-06T15:48:07.238Z,7.57
2023-02-06T15:50:34.158Z,7.23
2023-02-06T15:53:01.329Z,8.13
2023-02-06T15:55:35.995Z,5.57
2023-02-06T15:58:04.828Z,9.13
2023-02-06T16:00:33.888Z,5.20
2023-02-06T16:03:07.488Z,8.33
2023-02-06T16:05:41.544Z,6.83
2023-02-06T16:08:17.688Z,7.70
2023-02-06T16:10:49.700Z,13.67
2023-02-06T16:13:21.275Z,13.57
2023-02-06T16:16:11.650Z,6.03
2023-02-06T16:18:39.910Z,7.40
2023-02-06T16:21:15.675Z,8.17
2023-02-06T16:23:47.768Z,8.50
2023-02-06T16:26:21.585Z,5.30
2023-02-06T16:28:54.804Z,8.80
2023-02-06T16:31:22.171Z,5.87
2023-02-06T16:33:51.070Z,6.13
2023-02-06T16:36:19.539Z,13.93
2023-02-06T16:38:54.221Z,6.10
2023-02-06T16:41:38.754Z,7.80
2023-02-06T16:44:13.831Z,8.57
2023-02-06T16:46:40.918Z,6.93
2023-02-06T16:49:21.920Z,10.00
2023-02-06T16:51:51.498Z,4.87
2023-02-06T16:54:25.805Z,8.67
2023-02-06T16:56:54.237Z,6.17
2023-02-06T16:59:21.317Z,7.97
2023-02-06T17:01:48.401Z,10.43
2023-02-06T17:04:15.549Z,9.17
2023-02-06T17:06:42.816Z,7.13
2023-02-06T17:09:10.991Z,8.33
2023-02-06T17:11:38.716Z,5.93
2023-02-06T17:14:05.999Z,5.80
2023-02-06T17:16:33.696Z,4.20
2023-02-06T17:19:00.769Z,14.80
2023-02-06T17:21:32.484Z,6.37
2023-02-06T17:24:00.353Z,17.97
2023-02-06T17:26:27.573Z,7.57
2023-02-06T17:28:54.835Z,14.87
2023-02-06T17:31:22.118Z,20.63
2023-02-06T17:33:49.275Z,14.70
2023-02-06T17:36:22.267Z,6.87
2023-02-06T17:38:49.600Z,8.90
2023-02-06T17:41:16.648Z,9.10
2023-02-06T17:43:43.769Z,6.17
2023-02-06T17:46:11.297Z,7.93
2023-02-06T17:48:42.422Z,9.67
2023-02-06T17:51:09.655Z,8.03
2023-02-06T17:53:36.763Z,9.20
2023-02-06T17:56:09.392Z,6.57
2023-02-06T17:58:36.479Z,9.47
2023-02-06T18:01:03.518Z,6.70
2023-02-06T18:03:30.575Z,11.40
2023-02-06T18:05:58.899Z,8.70
2023-02-06T18:08:26.064Z,5.80
2023-02-06T18:10:53.124Z,6.23
2023-02-06T18:13:21.180Z,12.17
2023-02-06T18:15:53.012Z,5.67
2023-02-06T18:18:20.218Z,10.50
2023-02-06T18:20:47.292Z,9.83
2023-02-06T18:23:14.619Z,10.23
2023-02-06T18:25:43.513Z,7.77
2023-02-06T18:28:13.696Z,8.03
2023-02-06T18:30:41.838Z,15.60
2023-02-06T18:33:09.345Z,7.30
2023-02-06T18:35:40.403Z,10.50
2023-02-06T18:38:09.774Z,12.97
2023-02-06T18:40:41.108Z,9.87
2023-02-06T18:43:08.465Z,16.47
2023-02-06T18:45:37.678Z,8.23
2023-02-06T18:48:07.045Z,12.33
2023-02-06T18:50:35.483Z,16.27
2023-02-06T18:53:02.821Z,10.90
2023-02-06T18:55:29.960Z,14.97
2023-02-06T18:57:57.055Z,7.60
2023-02-06T19:00:24.388Z,11.03
2023-02-06T19:02:51.569Z,10.70
2023-02-06T19:05:19.227Z,10.27
2023-02-06T19:07:53.265Z,12.83
2023-02-06T19:10:21.439Z,10.23
2023-02-06T19:12:48.659Z,13.40
2023-02-06T19:15:15.786Z,16.60
2023-02-06T19:17:43.750Z,13.20
2023-02-06T19:20:11.281Z,13.07
2023-02-06T19:22:38.620Z,7.70
2023-02-06T19:25:10.235Z,9.60
2023-02-06T19:27:38.528Z,14.07
2023-02-06T19:30:07.632Z,16.40
2023-02-06T19:32:35.027Z,10.47
2023-02-06T19:35:02.398Z,11.70
2023-02-06T19:37:29.444Z,14.03
2023-02-06T19:39:56.628Z,10.77
2023-02-06T19:42:23.725Z,72.53
2023-02-06T19:44:54.795Z,14.93
2023-02-06T19:47:22.145Z,22.37
2023-02-06T19:49:52.563Z,28.80
2023-02-06T19:52:20.292Z,9.93
2023-02-06T19:54:47.750Z,9.83
2023-02-06T19:57:15.901Z,17.50
2023-02-06T19:59:43.052Z,11.03
2023-02-06T20:02:12.731Z,9.90
2023-02-06T20:04:39.848Z,13.27
2023-02-06T20:07:06.979Z,7.60
2023-02-06T20:09:34.059Z,11.23
2023-02-06T20:12:01.314Z,9.13
2023-02-06T20:14:29.044Z,8.97
2023-02-06T20:16:56.304Z,14.73
2023-02-06T20:19:25.857Z,6.47
2023-02-06T20:21:56.688Z,10.30
2023-02-06T20:24:26.616Z,14.40
2023-02-06T20:26:56.511Z,14.37
2023-02-06T20:29:32.718Z,12.33
2023-02-06T20:32:00.804Z,10.87
2023-02-06T20:34:28.666Z,11.27
2023-02-06T20:36:56.342Z,10.43
2023-02-06T20:39:24.286Z,10.47
2023-02-06T20:41:51.866Z,8.53
2023-02-06T20:44:20.113Z,7.17
2023-02-06T20:46:47.942Z,10.50
2023-02-06T20:49:21.713Z,6.33
2023-02-06T20:51:49.143Z,8.77
2023-02-06T20:54:16.988Z,9.37
2023-02-06T20:56:44.060Z,10.43
2023-02-06T20:59:15.931Z,6.70
2023-02-06T21:01:43.356Z,5.17
2023-02-06T21:04:11.520Z,6.20
2023-02-06T21:06:39.152Z,7.03
2023-02-06T21:09:07.116Z,10.70
2023-02-06T21:11:38.462Z,10.33
2023-02-06T21:14:06.357Z,12.53
2023-02-06T21:16:34.046Z,10.53
2023-02-06T21:19:02.922Z,7.17
2023-02-06T21:21:30.109Z,10.37
2023-02-06T21:23:57.363Z,13.30
2023-02-06T21:26:25.393Z,11.73
2023-02-06T21:28:52.766Z,9.43
2023-02-06T21:31:23.470Z,9.33
2023-02-06T21:33:51.638Z,6.53
2023-02-06T21:36:20.932Z,6.20
2023-02-06T21:38:48.061Z,10.17
2023-02-06T21:41:17.465Z,10.63
2023-02-06T21:43:44.779Z,10.23
2023-02-06T21:46:12.963Z,8.90
2023-02-06T21:48:40.449Z,13.17
2023-02-06T21:51:13.438Z,7.93
2023-02-06T21:53:41.468Z,8.73
2023-02-06T21:56:17.465Z,16.67
2023-02-06T21:58:45.029Z,15.93
2023-02-06T22:01:24.108Z,8.13
2023-02-06T22:03:51.333Z,7.63
2023-02-06T22:06:19.913Z,9.57
2023-02-06T22:08:51.317Z,6.10
2023-02-06T22:11:26.950Z,10.07
2023-02-06T22:13:57.165Z,8.43
2023-02-06T22:16:24.612Z,7.07
2023-02-06T22:18:51.762Z,7.47
2023-02-06T22:21:20.914Z,9.33
2023-02-06T22:23:50.466Z,12.50
2023-02-06T22:26:19.223Z,24.93
2023-02-06T22:28:46.671Z,18.53
2023-02-06T22:31:23.319Z,13.53
2023-02-06T22:33:50.824Z,10.27
2023-02-06T22:36:20.408Z,12.40
2023-02-06T22:38:48.062Z,15.83
2023-02-06T22:41:16.579Z,12.33
2023-02-06T22:43:44.807Z,10.40
2023-02-06T22:46:22.148Z,13.03
2023-02-06T22:48:48.881Z,11.30
2023-02-06T22:51:15.903Z,10.47
2023-02-06T22:53:42.839Z,12.00
2023-02-06T22:56:27.380Z,11.23
2023-02-06T22:59:11.199Z,9.27
2023-02-06T23:01:41.920Z,8.57
2023-02-06T23:04:12.810Z,8.80
2023-02-06T23:06:40.805Z,7.97
2023-02-06T23:09:09.274Z,8.07
2023-02-06T23:11:36.515Z,8.23
2023-02-06T23:14:05.091Z,8.90
2023-02-06T23:16:33.732Z,5.27
2023-02-06T23:19:04.340Z,6.77
2023-02-06T23:21:32.614Z,7.40
2023-02-06T23:24:00.672Z,7.37
2023-02-06T23:26:28.414Z,5.73
2023-02-06T23:29:00.272Z,6.70
2023-02-06T23:31:27.911Z,8.10
2023-02-06T23:33:55.798Z,5.80
2023-02-06T23:36:24.652Z,7.83
2023-02-06T23:38:51.924Z,5.43
2023-02-06T23:41:21.579Z,6.03
2023-02-06T23:44:08.067Z,5.63
2023-02-06T23:46:37.288Z,8.23
2023-02-06T23:49:04.871Z,6.87
2023-02-06T23:51:32.855Z,5.93
2023-02-06T23:53:59.950Z,7.13
2023-02-06T23:56:29.424Z,9.47
2023-02-06T23:58:57.204Z,6.67
